メインページ
METAR-TAF:

METAR-TAF

空港 :

ブラジリア, ブラジリア連邦直轄区, ブラジル

プレジデント・ジュセリノ・クビシェッキ国際空港

緯度: 15-52S, 経度: 047-56W, 海抜: 1061m

現時点の気象観測

当レポートは36分前の03:00(UTC)に作成
南/南東の風 3kt
気温 21°C
湿度 78%
気圧 1023 hPa
視程10km以上
1,500メートル以下は雲なし、積乱雲なし

METAR: SBBR 260300Z 15003KT CAVOK 21/17 Q1023

時間: 00:36 (03:36 UTC)

予報

当レポートは5時間36分前の22:00(UTC)に作成
予報は26日の 00時(UTC)から 26日の 24時(UTC)まで有効
東/南東の風 7kt
視程10km以上
1,500メートル以下は雲なし、積乱雲なし
26日の 1300時(UTC)から
の風 10kt
視程10km以上
1,500メートル以下は雲なし、積乱雲なし
26日の 1800時(UTC)から
東/南東の風 9kt
視程10km以上
高度4000ftの雲は散在している

TAF: SBBR 252200Z 2600/2624 11007KT CAVOK TN14/2608Z TX28/2618Z FM261300 09010KT CAVOK FM261800 12009KT 9999 SCT040 RMK PDF

4,000以上の空港の気象観測と天気予報(METAR報とTAF報)

利用可能な観測所は地図上に黄色い丸と赤い丸で示す。

丸の上にカーソルを重ねると観測所名を参照できる。

次にクリックすると気象観測と天気予報を参照できる。

マップの切り替え:黒色「×」印の緑ボタンをクリックして拡大、「-」印の緑ボタンをクリックして縮小、緑色の三角印をクリックして隣りの地図に切り替え


METAR-TAF: